createdAt,value
2023-02-01T00:07:05.157Z,92.7
2023-02-01T00:27:05.127Z,92.6
2023-02-01T00:47:05.127Z,93.0
2023-02-01T01:07:05.113Z,93.3
2023-02-01T01:27:05.104Z,93.7
2023-02-01T01:47:05.152Z,93.9
2023-02-01T02:07:05.095Z,93.9
2023-02-01T02:27:05.121Z,94.3
2023-02-01T02:47:05.081Z,94.5
2023-02-01T03:07:05.069Z,94.3
2023-02-01T03:27:05.068Z,94.4
2023-02-01T03:47:05.058Z,94.1
2023-02-01T04:07:05.060Z,94.3
2023-02-01T04:27:05.163Z,94.3
2023-02-01T04:47:05.034Z,94.4
2023-02-01T05:07:05.045Z,94.6
2023-02-01T05:27:05.018Z,94.2
2023-02-01T05:47:05.010Z,94.0
2023-02-01T06:07:05.012Z,93.6
2023-02-01T06:27:05.012Z,93.5
2023-02-01T06:47:04.997Z,93.5
2023-02-01T07:07:04.982Z,93.4
2023-02-01T07:27:04.987Z,93.3
2023-02-01T07:47:05.017Z,93.0
2023-02-01T08:07:04.972Z,93.1
2023-02-01T08:27:04.986Z,92.8
2023-02-01T09:07:04.955Z,91.9
2023-02-01T09:27:04.940Z,92.4
2023-02-01T09:47:04.930Z,91.4
2023-02-01T10:07:05.083Z,90.7
2023-02-01T10:27:05.062Z,90.9
2023-02-01T10:47:05.054Z,90.7
2023-02-01T11:07:04.959Z,90.6
2023-02-01T11:27:04.885Z,90.6
2023-02-01T11:47:05.026Z,91.0
2023-02-01T12:07:05.014Z,90.4
2023-02-01T12:27:05.003Z,90.9
2023-02-01T12:47:04.995Z,90.1
2023-02-01T13:07:05.012Z,89.6
2023-02-01T13:27:04.980Z,89.8
2023-02-01T13:47:05.007Z,90.0
2023-02-01T14:07:04.927Z,90.6
2023-02-01T14:27:05.038Z,90.4
2023-02-01T14:47:04.962Z,91.0
2023-02-01T15:07:04.933Z,89.8
2023-02-01T15:27:04.798Z,88.2
2023-02-01T15:47:04.912Z,89.5
2023-02-01T16:07:04.741Z,90.3
2023-02-01T16:27:04.914Z,90.5
2023-02-01T16:47:04.893Z,90.2
2023-02-01T17:07:04.719Z,90.1
2023-02-01T17:27:04.794Z,90.5
2023-02-01T17:47:04.803Z,90.3
2023-02-01T18:07:04.863Z,90.4
2023-02-01T18:27:04.849Z,89.9
2023-02-01T18:47:04.695Z,89.5
2023-02-01T19:07:04.770Z,89.6
2023-02-01T19:27:04.721Z,89.0
2023-02-01T19:47:04.794Z,89.0
2023-02-01T20:07:03.839Z,88.6
2023-02-01T20:27:04.755Z,88.9
2023-02-01T20:47:04.756Z,91.4
2023-02-01T21:07:04.657Z,92.5
2023-02-01T21:27:04.660Z,92.0
2023-02-01T21:47:04.771Z,92.5
2023-02-01T22:07:04.764Z,92.0
2023-02-01T22:27:04.618Z,91.7
2023-02-01T22:47:04.664Z,91.8
2023-02-01T23:07:04.654Z,91.9
2023-02-01T23:27:04.643Z,91.9
2023-02-01T23:47:04.695Z,92.3
